Aérodrome :
LOGIN :

S'inscrire | Disclaimer

   EN    FR    IT 

 










Légende :    VFR   VFR Marginal   IFR   IFR Intensif   IFR Très Intensif
Visi : 
Plafond : 
>= 8 km
>= 3000ft
5 à 8 km
1000 à 3000 ft
1500m à 5 km
500 à 1000 ft
800 à 1500m
200 à 500 ft
< 800m
< 200 ft
Symboles :   Orages  Brouillard  Fortes neiges  Fortes précipitations  Vent > 20 kt
SIGMETs :   Divers  Orages  Givrage  Turbulence  Onde Orograph.  Cendres Volcan.







- Altitude de l'aérodrome : 1115 ft
- Code IATA : GRZ


LOWG - Graz

DERNIER METAR :
  • 172050Z 16003KT 1800 -DZ BR BKN002 BKN003 04/03 Q1022 NOSIG

METARs EXPIRÉS :
  • 172020Z 15003KT 1800 -DZ BR BKN002 BKN003 04/03 Q1022 NOSIG
  • 171950Z 18004KT 1200 BR BKN002 BKN003 04/03 Q1022 NOSIG
  • 171920Z 18004KT 1600 R17/P1500N R35/P1500D BR SCT002 BKN003 04/04 Q1023 BECMG 1200 BCFG OVC002
  • 171850Z 18003KT 150V210 2000 BR SCT002 BKN003 04/04 Q1023 TEMPO 1200 BCFG BKN002
  • 171820Z 18004KT 2200 BR FEW002 BKN003 OVC009 04/04 Q1023 TEMPO 0800 FG OVC002

TAF AMD TAF LOWG
Valide du 17 à 19h jusqu'au 18 à 18h UTC


171926Z 1719/1818 VRB02KT 2000 BR BKN005 TX09/1812Z TN01/1805Z
TEMPO 1719/1722 0300 FG SCT001 BKN002
TEMPO 1722/1808 0100 FG VV001
BECMG 1808/1810 5000 BR SCT060
TEMPO 1811/1816 16005KT 9999 FEW060
BECMG 1816/1818 7000 BKN050
Pas de NOTAMs connus pour ce terrain.



MET'MAP, la Météo Aéronautique d'un coup d'oeil ! - Copyright ORBIFLY Décembre 2007 - Disclaimer

ORBIFLY MET'MAP TEAM :

Programmation & Développement : Alexandra Zaïnal
Conception & Développement : Baudouin d'Aumeries
Co-Programmation & Développement : Marc-Olivier Méhu
Soutien technique & logistique : Manuel Goepfert

Contact : metmap@orbifly.com




SOURCES & CREDITS :

   NOAA